Time;durP1;ratioP1;P1;durP2;ratioP2;P2;SDS_P1;SDS_P2;PMS_P1;PMS_P2;Temp;Humidity;BMP_temperature;BMP_pressure;BME280_temperature;BME280_humidity;BME280_pressure;Samples;Min_cycle;Max_cycle;Signal;HPM_P1;HPM_P2
2021/10/28 00:12:19;;;;;;;;;;;15.40;99.90;;;;;;4973382;28;810;-51
2021/10/28 00:14:47;;;;;;;;;;;15.30;99.90;;;;;;4978381;28;854;-51
2021/10/28 00:17:18;;;;;;;;;;;15.30;99.90;;;;;;4978503;28;746;-50
2021/10/28 00:19:45;;;;;;;;;;;15.30;99.90;;;;;;4976748;28;987;-50
2021/10/28 00:22:12;;;;;;;;;;;15.30;99.90;;;;;;4977800;28;893;-50
2021/10/28 00:24:39;;;;;;;;;;;15.30;99.90;;;;;;4977216;28;1975;-50
2021/10/28 00:27:05;;;;;;;;;;;15.20;99.90;;;;;;4978218;28;1044;-50
2021/10/28 00:29:31;;;;;;;;;;;15.20;99.90;;;;;;4978150;28;846;-50
2021/10/28 00:31:57;;;;;;;;;;;15.20;99.90;;;;;;4977974;28;811;-50
2021/10/28 00:34:25;;;;;;;;;;;15.20;99.90;;;;;;4977594;28;904;-51
2021/10/28 00:36:52;;;;;;;;;;;15.20;99.90;;;;;;4977656;28;754;-50
2021/10/28 00:39:20;;;;;;;;;;;15.20;99.90;;;;;;4977977;28;874;-50
2021/10/28 00:41:49;;;;;;;;;;;15.20;99.90;;;;;;4977931;28;798;-50
2021/10/28 00:44:15;;;;;;;;;;;15.10;99.90;;;;;;4977250;28;1914;-50
2021/10/28 00:46:41;;;;;;;;;;;15.10;99.90;;;;;;4978107;28;756;-52
2021/10/28 00:49:09;;;;;;;;;;;15.10;99.90;;;;;;4977033;28;997;-50
2021/10/28 00:51:35;;;;;;;;;;;15.10;99.90;;;;;;4977251;28;944;-50
2021/10/28 00:54:04;;;;;;;;;;;15.10;99.90;;;;;;4977739;28;879;-50
2021/10/28 00:56:35;;;;;;;;;;;15.10;99.90;;;;;;4976899;28;1154;-50
2021/10/28 00:59:02;;;;;;;;;;;15.00;99.90;;;;;;4977511;28;921;-53
2021/10/28 01:01:29;;;;;;;;;;;15.00;99.90;;;;;;4977666;28;846;-50
2021/10/28 01:03:56;;;;;;;;;;;15.00;99.90;;;;;;4977473;28;1019;-50
2021/10/28 01:06:23;;;;;;;;;;;15.00;99.90;;;;;;4977318;28;1894;-50
2021/10/28 01:08:50;;;;;;;;;;;15.00;99.90;;;;;;4977546;28;870;-50
2021/10/28 01:11:16;;;;;;;;;;;15.00;99.90;;;;;;4977456;28;895;-50
2021/10/28 01:13:42;;;;;;;;;;;14.90;99.90;;;;;;4977238;28;783;-51
2021/10/28 01:16:08;;;;;;;;;;;14.90;99.90;;;;;;4974761;28;1420;-50
2021/10/28 01:18:38;;;;;;;;;;;14.90;99.90;;;;;;4977123;28;869;-52
2021/10/28 01:21:08;;;;;;;;;;;14.90;99.90;;;;;;4974693;28;1084;-52
2021/10/28 01:23:35;;;;;;;;;;;14.90;99.90;;;;;;4977680;28;916;-53
2021/10/28 01:26:07;;;;;;;;;;;14.90;99.90;;;;;;4977184;28;1911;-53
2021/10/28 01:28:36;;;;;;;;;;;14.90;99.90;;;;;;4977638;28;878;-50
2021/10/28 01:31:05;;;;;;;;;;;14.90;99.90;;;;;;4977249;28;979;-50
2021/10/28 01:33:31;;;;;;;;;;;14.90;99.90;;;;;;4977475;28;1033;-50
2021/10/28 01:35:57;;;;;;;;;;;14.80;99.90;;;;;;4974796;28;1345;-51
2021/10/28 01:38:26;;;;;;;;;;;14.80;99.90;;;;;;4977248;28;925;-50
2021/10/28 01:40:57;;;;;;;;;;;14.80;99.90;;;;;;4976954;28;888;-50
2021/10/28 01:43:24;;;;;;;;;;;14.80;99.90;;;;;;4975023;28;1178;-50
2021/10/28 01:45:50;;;;;;;;;;;14.80;99.90;;;;;;4977136;28;1964;-50
2021/10/28 01:48:17;;;;;;;;;;;14.80;99.90;;;;;;4977368;28;1596;-50
2021/10/28 01:50:45;;;;;;;;;;;14.70;99.90;;;;;;4976017;28;1003;-52
2021/10/28 01:53:11;;;;;;;;;;;14.70;99.90;;;;;;4990846;28;1098;-50
2021/10/28 01:55:37;;;;;;;;;;;14.70;99.90;;;;;;4976763;28;965;-50
2021/10/28 01:58:05;;;;;;;;;;;14.70;99.90;;;;;;4976858;28;838;-50
2021/10/28 02:00:35;;;;;;;;;;;14.70;99.90;;;;;;4977395;28;886;-50
2021/10/28 02:03:03;;;;;;;;;;;14.70;99.90;;;;;;4980646;28;820;-50
2021/10/28 02:05:31;;;;;;;;;;;14.70;99.90;;;;;;4980644;28;1902;-50
2021/10/28 02:07:59;;;;;;;;;;;14.70;99.90;;;;;;4979713;28;818;-50
2021/10/28 02:10:26;;;;;;;;;;;14.60;99.90;;;;;;4980794;28;788;-50
2021/10/28 02:12:56;;;;;;;;;;;14.60;99.90;;;;;;4975531;28;890;-50
2021/10/28 02:15:23;;;;;;;;;;;14.60;99.90;;;;;;4980455;28;913;-50
2021/10/28 02:17:51;;;;;;;;;;;14.60;99.90;;;;;;4980653;28;1131;-50
2021/10/28 02:20:17;;;;;;;;;;;14.60;99.90;;;;;;4980400;28;1132;-50
2021/10/28 02:22:44;;;;;;;;;;;14.60;99.90;;;;;;4979365;28;1275;-50
2021/10/28 02:25:11;;;;;;;;;;;14.60;99.90;;;;;;4980153;28;1951;-50
2021/10/28 02:27:39;;;;;;;;;;;14.50;99.90;;;;;;4978841;28;949;-51
2021/10/28 02:30:07;;;;;;;;;;;14.50;99.90;;;;;;4980152;28;857;-51
2021/10/28 02:32:34;;;;;;;;;;;14.50;99.90;;;;;;4980346;28;966;-52
2021/10/28 02:35:01;;;;;;;;;;;14.50;99.90;;;;;;4979921;28;871;-53
2021/10/28 02:37:28;;;;;;;;;;;14.50;99.90;;;;;;4979879;28;880;-52
2021/10/28 02:39:55;;;;;;;;;;;14.50;99.90;;;;;;4980165;28;889;-50
2021/10/28 02:42:21;;;;;;;;;;;14.40;99.90;;;;;;4979731;28;836;-50
2021/10/28 02:44:49;;;;;;;;;;;14.50;99.90;;;;;;4979280;28;1906;-48
2021/10/28 02:47:15;;;;;;;;;;;14.40;99.90;;;;;;4979927;28;856;-50
2021/10/28 02:49:41;;;;;;;;;;;14.40;99.90;;;;;;4978827;28;878;-53
2021/10/28 02:52:08;;;;;;;;;;;14.40;99.90;;;;;;4979699;28;809;-52
2021/10/28 02:54:37;;;;;;;;;;;14.40;99.90;;;;;;4979640;28;893;-53
2021/10/28 02:57:06;;;;;;;;;;;14.40;99.90;;;;;;4979863;28;806;-52
2021/10/28 02:59:34;;;;;;;;;;;14.40;99.90;;;;;;4978962;28;826;-52
2021/10/28 03:02:01;;;;;;;;;;;14.30;99.90;;;;;;4979612;28;863;-52
2021/10/28 03:04:28;;;;;;;;;;;14.40;99.90;;;;;;4978006;28;1973;-51
2021/10/28 03:06:56;;;;;;;;;;;14.30;99.90;;;;;;4979368;28;805;-50
2021/10/28 03:09:25;;;;;;;;;;;14.30;99.90;;;;;;4979016;28;814;-50
2021/10/28 03:11:53;;;;;;;;;;;14.30;99.90;;;;;;4979695;28;847;-50
2021/10/28 03:14:24;;;;;;;;;;;14.30;99.90;;;;;;4977470;28;794;-50
2021/10/28 03:27:51;;;;;;;;;;;14.30;99.90;;;;;;4976503;28;788;-50
2021/10/28 03:30:17;;;;;;;;;;;14.30;99.90;;;;;;4979081;28;763;-50
2021/10/28 03:32:45;;;;;;;;;;;14.30;99.90;;;;;;4978140;28;858;-50
2021/10/28 03:35:14;;;;;;;;;;;14.30;99.90;;;;;;4978896;28;822;-50
2021/10/28 04:02:23;;;;;;;;;;;14.20;99.90;;;;;;4978525;28;924;-50
2021/10/28 04:20:40;;;;;;;;;;;14.10;99.90;;;;;;4976688;28;1173;-50
2021/10/28 04:31:28;;;;;;;;;;;14.00;99.90;;;;;;4978351;28;778;-51
2021/10/28 04:33:58;;;;;;;;;;;14.00;99.90;;;;;;4978437;28;914;-52
2021/10/28 04:36:29;;;;;;;;;;;14.00;99.90;;;;;;4977567;28;1222;-53
2021/10/28 04:38:57;;;;;;;;;;;14.00;99.90;;;;;;4977983;28;1150;-50
2021/10/28 04:41:22;;;;;;;;;;;14.00;99.90;;;;;;4976929;28;775;-50
2021/10/28 04:43:51;;;;;;;;;;;13.90;99.90;;;;;;4977477;28;1253;-50
2021/10/28 04:46:19;;;;;;;;;;;13.90;99.90;;;;;;4977726;28;1968;-50
2021/10/28 04:48:45;;;;;;;;;;;14.00;99.90;;;;;;4977611;28;1247;-50
2021/10/28 04:51:12;;;;;;;;;;;13.90;99.90;;;;;;4977369;28;913;-50
2021/10/28 04:53:41;;;;;;;;;;;14.00;99.90;;;;;;4977409;28;746;-50
2021/10/28 04:56:07;;;;;;;;;;;14.00;99.90;;;;;;4977273;28;904;-50
2021/10/28 04:58:36;;;;;;;;;;;14.00;99.90;;;;;;4977788;28;802;-50
2021/10/28 05:01:02;;;;;;;;;;;14.10;99.90;;;;;;4977749;28;1006;-50
2021/10/28 05:03:29;;;;;;;;;;;14.00;99.90;;;;;;4977642;28;1037;-50
2021/10/28 05:05:55;;;;;;;;;;;14.10;99.90;;;;;;4977205;28;1964;-50
2021/10/28 05:08:21;;;;;;;;;;;14.20;99.90;;;;;;4977414;28;796;-50
2021/10/28 05:10:47;;;;;;;;;;;14.20;99.90;;;;;;4977394;28;825;-50
2021/10/28 05:13:15;;;;;;;;;;;14.20;99.90;;;;;;4977289;28;855;-53
2021/10/28 05:15:45;;;;;;;;;;;14.20;99.90;;;;;;4977507;28;878;-52
2021/10/28 05:18:12;;;;;;;;;;;14.20;99.90;;;;;;4977174;28;842;-50
2021/10/28 05:20:38;;;;;;;;;;;14.30;99.90;;;;;;4976984;28;878;-50
2021/10/28 05:23:04;;;;;;;;;;;14.30;99.90;;;;;;4976915;28;1130;-50
2021/10/28 05:25:30;;;;;;;;;;;14.30;99.90;;;;;;4975402;28;1973;-51
2021/10/28 05:27:58;;;;;;;;;;;14.30;99.90;;;;;;4959544;28;904;-50
2021/10/28 05:30:26;;;;;;;;;;;14.30;99.90;;;;;;4975558;28;1172;-50
2021/10/28 05:32:54;;;;;;;;;;;14.30;99.90;;;;;;4975426;28;791;-50
2021/10/28 05:35:20;;;;;;;;;;;14.40;99.90;;;;;;4975792;28;890;-50
2021/10/28 05:37:47;;;;;;;;;;;14.40;99.90;;;;;;4997932;28;1024;-50
2021/10/28 05:40:14;;;;;;;;;;;14.50;99.90;;;;;;4978289;28;995;-52
2021/10/28 05:42:43;;;;;;;;;;;14.70;99.90;;;;;;4961830;28;1014;-52
2021/10/28 05:45:10;;;;;;;;;;;14.90;99.90;;;;;;4946476;29;1902;-52
2021/10/28 05:47:37;;;;;;;;;;;15.10;99.90;;;;;;4961325;29;850;-53
2021/10/28 05:50:07;;;;;;;;;;;15.30;99.90;;;;;;4945522;29;1084;-50
2021/10/28 05:52:33;;;;;;;;;;;15.40;99.90;;;;;;4961383;28;1185;-50
2021/10/28 05:55:03;;;;;;;;;;;15.50;99.90;;;;;;4961784;28;795;-50
2021/10/28 05:57:31;;;;;;;;;;;15.70;99.90;;;;;;4979254;28;1471;-52
2021/10/28 05:59:59;;;;;;;;;;;15.70;99.90;;;;;;4981730;28;860;-52
2021/10/28 06:02:26;;;;;;;;;;;15.80;99.90;;;;;;4965463;28;1299;-52
2021/10/28 06:04:53;;;;;;;;;;;15.90;99.90;;;;;;4981258;28;1973;-52
2021/10/28 06:07:20;;;;;;;;;;;15.90;99.90;;;;;;4981281;28;1136;-53
2021/10/28 06:09:48;;;;;;;;;;;15.90;99.90;;;;;;4981650;28;1037;-53
2021/10/28 06:12:15;;;;;;;;;;;16.00;99.90;;;;;;4981645;28;796;-52
2021/10/28 06:14:42;;;;;;;;;;;16.00;99.90;;;;;;4981106;28;836;-50
2021/10/28 06:17:13;;;;;;;;;;;15.90;99.90;;;;;;4983157;28;911;-50
2021/10/28 06:19:40;;;;;;;;;;;16.00;99.90;;;;;;4983300;28;821;-50
2021/10/28 06:22:08;;;;;;;;;;;16.00;99.90;;;;;;4983066;28;752;-50
2021/10/28 06:24:33;;;;;;;;;;;16.10;99.90;;;;;;4983222;28;755;-50
2021/10/28 06:27:00;;;;;;;;;;;16.10;99.90;;;;;;4983048;28;1968;-52
2021/10/28 06:29:27;;;;;;;;;;;16.10;99.90;;;;;;4983419;28;919;-52
2021/10/28 06:31:53;;;;;;;;;;;16.20;99.90;;;;;;4980741;28;1240;-53
2021/10/28 06:34:27;;;;;;;;;;;16.20;99.90;;;;;;4983296;28;850;-51
2021/10/28 06:37:01;;;;;;;;;;;16.30;99.90;;;;;;4983392;28;887;-52
2021/10/28 06:39:28;;;;;;;;;;;16.30;99.90;;;;;;4982222;28;909;-53
2021/10/28 06:41:55;;;;;;;;;;;16.30;99.90;;;;;;4983455;28;921;-53
2021/10/28 06:44:21;;;;;;;;;;;16.30;99.90;;;;;;4982846;28;1292;-50
2021/10/28 06:46:47;;;;;;;;;;;16.40;99.90;;;;;;4981078;28;1987;-50
2021/10/28 06:49:17;;;;;;;;;;;16.40;99.90;;;;;;4977515;28;927;-50
2021/10/28 06:51:45;;;;;;;;;;;16.40;99.90;;;;;;4979419;28;766;-50
2021/10/28 06:54:21;;;;;;;;;;;16.60;99.90;;;;;;4979535;28;898;-51
2021/10/28 06:57:14;;;;;;;;;;;16.60;99.90;;;;;;4978434;28;920;-51
2021/10/28 07:02:35;;;;;;;;;;;16.90;99.90;;;;;;4979660;28;930;-51
2021/10/28 07:05:05;;;;;;;;;;;16.90;99.90;;;;;;4978104;28;1906;-53
2021/10/28 07:07:33;;;;;;;;;;;16.90;99.90;;;;;;4977951;28;957;-53
2021/10/28 07:12:41;;;;;;;;;;;17.00;99.90;;;;;;4978364;28;827;-51
2021/10/28 07:15:17;;;;;;;;;;;17.30;99.90;;;;;;4971274;28;1259;-51
2021/10/28 07:20:57;;;;;;;;;;;17.20;99.90;;;;;;4976187;28;978;-51
2021/10/28 07:29:57;;;;;;;;;;;17.30;99.90;;;;;;4979238;28;1496;-52
2021/10/28 07:34:24;;;;;;;;;;;17.70;99.90;;;;;;4977199;28;1144;-51
2021/10/28 08:18:47;;;;;;;;;;;19.10;99.90;;;;;;4978141;28;810;-53
2021/10/28 08:29:23;;;;;;;;;;;18.30;99.90;;;;;;4978044;28;816;-50
2021/10/28 08:31:50;;;;;;;;;;;18.40;99.90;;;;;;4973611;28;1111;-50
2021/10/28 08:34:23;;;;;;;;;;;18.30;99.90;;;;;;4973298;28;768;-50
2021/10/28 08:36:51;;;;;;;;;;;18.20;99.90;;;;;;4968965;28;1166;-51
2021/10/28 08:39:18;;;;;;;;;;;18.10;99.90;;;;;;4971905;28;1298;-51
2021/10/28 08:41:45;;;;;;;;;;;18.10;99.90;;;;;;4971417;28;1120;-50
2021/10/28 08:44:14;;;;;;;;;;;18.10;99.90;;;;;;4972946;28;1361;-50
2021/10/28 08:46:43;;;;;;;;;;;18.10;99.90;;;;;;4973004;28;1906;-50
2021/10/28 08:49:18;;;;;;;;;;;18.10;99.90;;;;;;4977393;28;1092;-50
2021/10/28 08:52:29;;;;;;;;;;;18.10;99.90;;;;;;4976175;28;968;-50
2021/10/28 08:57:26;;;;;;;;;;;18.20;99.90;;;;;;4970027;28;1175;-50
2021/10/28 09:23:54;;;;;;;;;;;18.90;99.90;;;;;;4976623;28;993;-54
2021/10/28 09:25:20;;;;;;;;;;;18.70;99.90;;;;;;4966371;28;1911;-53
2021/10/28 09:28:03;;;;;;;;;;;18.60;99.90;;;;;;4969950;28;1290;-52
2021/10/28 09:30:38;;;;;;;;;;;18.70;99.90;;;;;;4970255;28;1164;-53
2021/10/28 09:33:05;;;;;;;;;;;18.70;99.90;;;;;;4972722;28;1109;-53
2021/10/28 09:43:32;;;;;;;;;;;18.80;99.90;;;;;;4972581;28;1311;-52
2021/10/28 09:45:02;;;;;;;;;;;18.70;99.90;;;;;;4967919;28;1291;-53
2021/10/28 09:47:06;;;;;;;;;;;18.70;99.90;;;;;;4970675;28;2220;-53
2021/10/28 09:49:52;;;;;;;;;;;18.70;99.90;;;;;;4971306;28;1052;-53
2021/10/28 09:52:29;;;;;;;;;;;18.70;99.90;;;;;;4972320;28;1263;-54
2021/10/28 09:57:47;;;;;;;;;;;18.70;99.90;;;;;;4974546;28;1098;-53
2021/10/28 09:57:59;;;;;;;;;;;18.70;99.90;;;;;;4976456;28;1033;-53
2021/10/28 10:00:33;;;;;;;;;;;18.70;99.90;;;;;;4975856;28;947;-54
2021/10/28 10:03:07;;;;;;;;;;;18.70;99.90;;;;;;4971119;28;985;-53
2021/10/28 10:05:33;;;;;;;;;;;18.80;99.90;;;;;;4967912;28;2315;-53
2021/10/28 10:08:00;;;;;;;;;;;18.80;99.90;;;;;;4969568;28;1287;-53
2021/10/28 10:10:28;;;;;;;;;;;18.80;99.90;;;;;;4974427;28;1421;-53
2021/10/28 10:12:55;;;;;;;;;;;18.80;99.90;;;;;;4973339;28;1286;-53
2021/10/28 10:15:22;;;;;;;;;;;18.90;99.90;;;;;;4972087;28;1285;-53
2021/10/28 10:17:49;;;;;;;;;;;18.90;99.90;;;;;;4970340;28;1270;-53
2021/10/28 10:20:17;;;;;;;;;;;18.90;99.90;;;;;;4974460;28;1342;-53
2021/10/28 10:25:30;;;;;;;;;;;19.00;99.90;;;;;;4980416;28;806;-53
2021/10/28 11:22:13;;;;;;;;;;;19.20;99.90;;;;;;4976676;28;1021;-54
2021/10/28 11:27:53;;;;;;;;;;;19.20;99.90;;;;;;4979395;28;1963;-51
2021/10/28 12:43:29;;;;;;;;;;;18.20;99.90;;;;;;4977498;28;817;-51
2021/10/28 13:57:48;;;;;;;;;;;17.50;99.90;;;;;;4978567;28;857;-52
2021/10/28 14:38:20;;;;;;;;;;;17.90;99.90;;;;;;4979704;28;794;-52
2021/10/28 15:01:37;;;;;;;;;;;18.00;99.90;;;;;;4978643;28;921;-52
2021/10/28 15:27:58;;;;;;;;;;;17.70;99.90;;;;;;4973615;28;1964;-52
2021/10/28 15:30:34;;;;;;;;;;;17.60;99.90;;;;;;4974216;28;1144;-52
2021/10/28 15:33:44;;;;;;;;;;;17.60;99.90;;;;;;4978671;28;1039;-52
2021/10/28 15:36:40;;;;;;;;;;;17.60;99.90;;;;;;4978101;28;1469;-52
2021/10/28 15:39:10;;;;;;;;;;;17.60;99.90;;;;;;4980052;28;1380;-52
2021/10/28 15:55:45;;;;;;;;;;;17.30;99.90;;;;;;4978110;28;865;-52
2021/10/28 16:22:43;;;;;;;;;;;17.50;99.90;;;;;;4976879;28;1216;-52
2021/10/28 16:25:11;;;;;;;;;;;17.40;99.90;;;;;;4977096;28;817;-52
2021/10/28 16:27:38;;;;;;;;;;;17.50;99.90;;;;;;4977432;28;1906;-52
2021/10/28 16:30:04;;;;;;;;;;;17.40;99.90;;;;;;4977623;28;746;-52
2021/10/28 16:32:31;;;;;;;;;;;17.40;99.90;;;;;;4975694;28;1245;-52
2021/10/28 16:34:57;;;;;;;;;;;17.30;99.90;;;;;;4990735;28;982;-52
2021/10/28 16:37:25;;;;;;;;;;;17.30;99.90;;;;;;4977681;28;1059;-52
2021/10/28 16:39:52;;;;;;;;;;;17.30;99.90;;;;;;4977554;28;777;-52
2021/10/28 16:42:18;;;;;;;;;;;17.30;99.90;;;;;;4976676;28;1109;-52
2021/10/28 16:44:46;;;;;;;;;;;17.20;99.90;;;;;;4976451;28;1153;-51
2021/10/28 16:47:13;;;;;;;;;;;17.20;99.90;;;;;;4973389;28;1978;-52
2021/10/28 16:49:41;;;;;;;;;;;17.20;99.90;;;;;;4973605;28;860;-52
2021/10/28 16:52:08;;;;;;;;;;;17.20;99.90;;;;;;4975386;28;1164;-52
2021/10/28 16:54:35;;;;;;;;;;;17.20;99.90;;;;;;4976866;28;757;-52
2021/10/28 16:57:04;;;;;;;;;;;17.20;99.90;;;;;;4973813;28;931;-52
2021/10/28 17:01:39;;;;;;;;;;;17.10;99.90;;;;;;5041961;27;1804;-52
2021/10/28 17:04:05;;;;;;;;;;;17.20;99.90;;;;;;5033208;28;844;-52
2021/10/28 17:06:31;;;;;;;;;;;17.20;99.90;;;;;;5032394;28;856;-52
2021/10/28 17:08:59;;;;;;;;;;;17.30;99.90;;;;;;5046002;28;930;-52
2021/10/28 17:11:28;;;;;;;;;;;17.40;99.90;;;;;;5048504;28;857;-51
2021/10/28 17:13:56;;;;;;;;;;;17.50;99.90;;;;;;5047554;28;1924;-53
2021/10/28 17:16:23;;;;;;;;;;;17.60;99.90;;;;;;5034701;28;1054;-53
2021/10/28 17:18:49;;;;;;;;;;;17.70;99.90;;;;;;5033977;28;738;-51
2021/10/28 17:21:15;;;;;;;;;;;17.70;99.90;;;;;;5049615;28;1913;-50
2021/10/28 17:23:44;;;;;;;;;;;17.70;99.90;;;;;;5052001;28;826;-51
2021/10/28 17:26:13;;;;;;;;;;;17.80;99.90;;;;;;5052500;28;989;-51
2021/10/28 17:28:39;;;;;;;;;;;17.70;99.90;;;;;;5047852;28;778;-51
2021/10/28 17:31:06;;;;;;;;;;;17.80;99.90;;;;;;5052421;28;870;-51
2021/10/28 17:33:34;;;;;;;;;;;17.80;99.90;;;;;;5052486;28;874;-54
2021/10/28 17:36:00;;;;;;;;;;;17.80;99.90;;;;;;5052428;28;870;-51
2021/10/28 17:38:27;;;;;;;;;;;17.80;99.90;;;;;;5033234;28;860;-51
2021/10/28 17:40:53;;;;;;;;;;;17.80;99.90;;;;;;5040101;28;1985;-50
2021/10/28 17:43:21;;;;;;;;;;;17.80;99.90;;;;;;5050883;28;1136;-52
2021/10/28 17:45:56;;;;;;;;;;;17.80;99.90;;;;;;5039400;28;1298;-50
2021/10/28 17:49:16;;;;;;;;;;;17.80;99.90;;;;;;5049054;28;851;-51
2021/10/28 17:51:52;;;;;;;;;;;17.70;99.90;;;;;;5033564;28;1091;-50
2021/10/28 17:54:18;;;;;;;;;;;17.60;99.90;;;;;;5051380;28;820;-50
2021/10/28 17:56:43;;;;;;;;;;;17.60;99.90;;;;;;5051653;28;857;-50
2021/10/28 17:59:09;;;;;;;;;;;17.50;99.90;;;;;;5051868;28;793;-50
2021/10/28 18:01:38;;;;;;;;;;;17.50;99.90;;;;;;5069397;28;1961;-50
2021/10/28 18:04:04;;;;;;;;;;;17.40;99.90;;;;;;5069850;28;1425;-52
2021/10/28 18:06:31;;;;;;;;;;;17.40;99.90;;;;;;5058496;28;1149;-52
2021/10/28 18:08:57;;;;;;;;;;;17.40;99.90;;;;;;5051922;28;938;-52
2021/10/28 18:11:24;;;;;;;;;;;17.30;99.90;;;;;;5058301;28;1294;-50
2021/10/28 18:13:54;;;;;;;;;;;17.30;99.90;;;;;;5039794;28;1046;-50
2021/10/28 18:16:22;;;;;;;;;;;17.30;99.90;;;;;;5038032;28;1005;-52
2021/10/28 18:18:50;;;;;;;;;;;17.30;99.90;;;;;;5039172;28;1282;-51
2021/10/28 18:21:18;;;;;;;;;;;17.30;99.90;;;;;;5039117;28;1906;-52
2021/10/28 18:23:48;;;;;;;;;;;17.30;99.90;;;;;;5039373;28;902;-52
2021/10/28 18:26:17;;;;;;;;;;;17.30;99.90;;;;;;5044038;28;1351;-52
2021/10/28 18:28:43;;;;;;;;;;;17.30;99.90;;;;;;5044663;28;1516;-52
2021/10/28 18:31:10;;;;;;;;;;;17.30;99.90;;;;;;5039278;28;881;-52
2021/10/28 18:33:36;;;;;;;;;;;17.30;99.90;;;;;;5039113;28;1201;-50
2021/10/28 18:36:05;;;;;;;;;;;17.30;99.90;;;;;;5050815;28;858;-50
2021/10/28 18:38:33;;;;;;;;;;;17.30;99.90;;;;;;5057390;28;781;-52
2021/10/28 18:40:59;;;;;;;;;;;17.40;99.90;;;;;;5047502;28;1899;-52
2021/10/28 18:43:25;;;;;;;;;;;17.40;99.90;;;;;;5048026;28;1361;-52
2021/10/28 18:45:52;;;;;;;;;;;17.40;99.90;;;;;;5046664;28;1099;-52
2021/10/28 18:48:19;;;;;;;;;;;17.40;99.90;;;;;;5039029;28;858;-52
2021/10/28 18:50:45;;;;;;;;;;;17.40;99.90;;;;;;5037086;28;1038;-52
2021/10/28 18:53:11;;;;;;;;;;;17.50;99.90;;;;;;5046320;28;1389;-52
2021/10/28 18:55:39;;;;;;;;;;;17.50;99.90;;;;;;5043446;28;761;-52
2021/10/28 18:58:05;;;;;;;;;;;17.50;99.90;;;;;;5038911;28;899;-52
2021/10/28 19:00:33;;;;;;;;;;;17.50;99.90;;;;;;5038370;28;1918;-52
2021/10/28 19:02:59;;;;;;;;;;;17.50;99.90;;;;;;5040203;28;840;-52
2021/10/28 19:05:26;;;;;;;;;;;17.50;99.90;;;;;;5046202;28;777;-52
2021/10/28 19:07:52;;;;;;;;;;;17.50;99.90;;;;;;5056283;28;884;-52
2021/10/28 19:10:18;;;;;;;;;;;17.60;99.90;;;;;;5051696;28;978;-52
2021/10/28 19:12:44;;;;;;;;;;;17.60;99.90;;;;;;5038478;28;859;-52
2021/10/28 19:15:11;;;;;;;;;;;17.50;99.90;;;;;;5036917;28;982;-52
2021/10/28 19:17:38;;;;;;;;;;;17.50;99.90;;;;;;5037402;28;870;-52
2021/10/28 19:20:06;;;;;;;;;;;17.50;99.90;;;;;;5038259;28;1910;-51
2021/10/28 19:22:33;;;;;;;;;;;17.50;99.90;;;;;;5037742;28;898;-50
2021/10/28 19:25:01;;;;;;;;;;;17.50;99.90;;;;;;5037737;28;837;-52
2021/10/28 19:27:28;;;;;;;;;;;17.50;99.90;;;;;;5038395;28;858;-52
2021/10/28 19:30:01;;;;;;;;;;;17.40;99.90;;;;;;5038071;28;761;-52
2021/10/28 19:32:28;;;;;;;;;;;17.40;99.90;;;;;;5037888;28;1132;-52
2021/10/28 19:34:56;;;;;;;;;;;17.40;99.90;;;;;;5037918;28;908;-52
2021/10/28 19:37:38;;;;;;;;;;;17.40;99.90;;;;;;5036388;28;1023;-52
2021/10/28 19:48:22;;;;;;;;;;;17.40;99.90;;;;;;5054437;28;858;-50
2021/10/28 19:50:50;;;;;;;;;;;17.30;99.90;;;;;;5054238;28;861;-52
2021/10/28 19:53:17;;;;;;;;;;;17.30;99.90;;;;;;5054151;28;861;-52
2021/10/28 19:55:43;;;;;;;;;;;17.30;99.90;;;;;;5053873;28;1036;-52
2021/10/28 19:58:15;;;;;;;;;;;17.30;99.90;;;;;;5053459;28;918;-52
2021/10/28 20:00:50;;;;;;;;;;;17.30;99.90;;;;;;5052361;28;1905;-52
2021/10/28 20:14:14;;;;;;;;;;;17.60;99.90;;;;;;5027188;28;1085;-52
2021/10/28 20:22:11;;;;;;;;;;;17.60;99.90;;;;;;5028067;28;1101;-50
2021/10/28 20:24:37;;;;;;;;;;;17.60;99.90;;;;;;5027817;28;1069;-51
2021/10/28 20:27:03;;;;;;;;;;;17.60;99.90;;;;;;5026404;28;1243;-52
2021/10/28 20:29:30;;;;;;;;;;;17.60;99.90;;;;;;5028053;28;989;-52
2021/10/28 20:31:57;;;;;;;;;;;17.60;99.90;;;;;;5031613;28;1264;-52
2021/10/28 20:34:50;;;;;;;;;;;17.60;99.90;;;;;;5021430;28;1738;-52
2021/10/28 20:37:18;;;;;;;;;;;17.60;99.90;;;;;;5028479;28;1037;-52
2021/10/28 20:39:45;;;;;;;;;;;17.60;99.90;;;;;;5048437;28;1919;-52
2021/10/28 20:42:14;;;;;;;;;;;17.50;99.90;;;;;;5028019;28;1096;-50
2021/10/28 20:44:41;;;;;;;;;;;17.60;99.90;;;;;;5023278;28;1132;-50
2021/10/28 20:47:07;;;;;;;;;;;17.60;99.90;;;;;;5021596;28;1099;-50
2021/10/28 20:49:33;;;;;;;;;;;17.50;99.90;;;;;;5017340;28;811;-50
2021/10/28 20:51:59;;;;;;;;;;;17.50;99.90;;;;;;5033599;28;1282;-50
2021/10/28 20:54:26;;;;;;;;;;;17.40;99.90;;;;;;5015821;28;857;-50
2021/10/28 20:56:55;;;;;;;;;;;17.40;99.90;;;;;;5016866;28;770;-51
2021/10/28 20:59:21;;;;;;;;;;;17.40;99.90;;;;;;5017106;28;1047;-50
2021/10/28 21:01:47;;;;;;;;;;;17.50;99.90;;;;;;5034580;28;1967;-51
2021/10/28 21:04:14;;;;;;;;;;;17.60;99.90;;;;;;5024493;28;1041;-52
2021/10/28 21:06:40;;;;;;;;;;;18.40;99.90;;;;;;5025914;28;1421;-50
2021/10/28 21:09:06;;;;;;;;;;;19.10;99.90;;;;;;5017256;28;790;-50
2021/10/28 21:11:37;;;;;;;;;;;19.60;99.90;;;;;;5025604;28;783;-50
2021/10/28 21:14:04;;;;;;;;;;;19.90;99.90;;;;;;5016749;28;881;-50
2021/10/28 21:16:30;;;;;;;;;;;19.80;99.90;;;;;;5016726;28;837;-50
2021/10/28 21:18:57;;;;;;;;;;;19.70;99.90;;;;;;5034319;28;845;-51
2021/10/28 21:21:25;;;;;;;;;;;19.60;99.90;;;;;;5034682;28;1874;-50
2021/10/28 21:23:51;;;;;;;;;;;19.60;99.90;;;;;;5034966;28;896;-50
2021/10/28 21:26:16;;;;;;;;;;;19.60;99.90;;;;;;5034861;28;826;-50
2021/10/28 21:28:42;;;;;;;;;;;19.60;99.90;;;;;;5034712;28;1052;-50
2021/10/28 21:31:09;;;;;;;;;;;19.60;99.90;;;;;;5034922;28;849;-50
2021/10/28 21:33:35;;;;;;;;;;;19.50;99.90;;;;;;5034972;28;882;-51
2021/10/28 21:36:02;;;;;;;;;;;19.40;99.90;;;;;;5034537;28;792;-51
2021/10/28 21:38:28;;;;;;;;;;;19.20;99.90;;;;;;5033586;28;901;-51
2021/10/28 21:40:56;;;;;;;;;;;19.20;99.90;;;;;;5025685;28;1959;-50
2021/10/28 21:43:23;;;;;;;;;;;19.20;99.90;;;;;;5016885;28;1008;-50
2021/10/28 21:45:51;;;;;;;;;;;19.20;99.90;;;;;;5031738;28;1044;-50
2021/10/28 21:48:18;;;;;;;;;;;19.10;99.90;;;;;;5024865;28;1310;-50
2021/10/28 21:50:44;;;;;;;;;;;19.10;99.90;;;;;;5019343;28;866;-50
2021/10/28 21:53:15;;;;;;;;;;;19.10;99.90;;;;;;5019842;28;944;-51
2021/10/28 22:00:49;;;;;;;;;;;19.10;99.90;;;;;;5038015;28;1906;-50
2021/10/28 22:24:58;;;;;;;;;;;19.00;99.90;;;;;;5034763;28;814;-50
2021/10/28 22:27:25;;;;;;;;;;;19.00;99.90;;;;;;5037677;28;769;-50
2021/10/28 22:29:52;;;;;;;;;;;19.00;99.90;;;;;;5019730;28;981;-50
2021/10/28 22:32:19;;;;;;;;;;;19.00;99.90;;;;;;5028332;28;1374;-50
2021/10/28 22:34:46;;;;;;;;;;;19.00;99.90;;;;;;5025300;28;1815;-51
2021/10/28 22:37:41;;;;;;;;;;;19.00;99.90;;;;;;5037884;28;888;-50
2021/10/28 22:42:40;;;;;;;;;;;18.90;99.90;;;;;;5019261;28;964;-52
2021/10/28 22:45:06;;;;;;;;;;;18.90;99.90;;;;;;5019161;28;806;-52
2021/10/28 22:47:32;;;;;;;;;;;18.90;99.90;;;;;;5019372;28;1113;-52
2021/10/28 22:49:58;;;;;;;;;;;18.90;99.90;;;;;;5019195;28;851;-51
2021/10/28 22:52:29;;;;;;;;;;;18.90;99.90;;;;;;5020065;28;962;-50
2021/10/28 22:54:59;;;;;;;;;;;18.90;99.90;;;;;;5019195;28;852;-50
2021/10/28 22:59:51;;;;;;;;;;;18.90;99.90;;;;;;5019706;28;1287;-52
2021/10/28 23:13:26;;;;;;;;;;;18.90;99.90;;;;;;5018597;28;872;-52
2021/10/28 23:21:10;;;;;;;;;;;17.40;99.90;;;;;;5024602;28;1914;-52
2021/10/28 23:23:37;;;;;;;;;;;17.00;99.90;;;;;;5027988;28;1011;-51
2021/10/28 23:26:04;;;;;;;;;;;17.00;99.90;;;;;;5028267;28;1317;-52
2021/10/28 23:28:31;;;;;;;;;;;17.00;99.90;;;;;;5028300;28;1657;-51
2021/10/28 23:30:56;;;;;;;;;;;17.00;99.90;;;;;;5029236;28;1262;-51
2021/10/28 23:33:24;;;;;;;;;;;17.00;99.90;;;;;;5025648;28;1317;-52
2021/10/28 23:35:50;;;;;;;;;;;17.00;99.90;;;;;;5030663;28;1313;-52
2021/10/28 23:38:16;;;;;;;;;;;17.00;99.90;;;;;;5023947;28;1360;-52
2021/10/28 23:40:42;;;;;;;;;;;16.90;99.90;;;;;;5030445;28;1975;-51
2021/10/28 23:43:10;;;;;;;;;;;16.90;99.90;;;;;;5026824;28;1239;-52
2021/10/28 23:45:37;;;;;;;;;;;16.80;99.90;;;;;;5028430;28;1211;-51
2021/10/28 23:48:05;;;;;;;;;;;16.70;99.90;;;;;;5009495;28;1383;-51
2021/10/28 23:50:30;;;;;;;;;;;16.70;99.90;;;;;;5033941;28;1220;-51
2021/10/28 23:52:57;;;;;;;;;;;16.70;99.90;;;;;;5018504;28;1223;-51
2021/10/28 23:55:23;;;;;;;;;;;16.60;99.90;;;;;;5017994;28;1125;-51
2021/10/28 23:57:49;;;;;;;;;;;16.60;99.90;;;;;;5017709;28;822;-51
